createdAt,value
2017-01-24T00:00:06.487Z,42.8
2017-01-24T00:01:06.507Z,43.18
2017-01-24T00:02:06.135Z,42.89
2017-01-24T00:03:06.561Z,42.89
2017-01-24T00:04:06.584Z,42.89
2017-01-24T00:05:06.217Z,42.87
2017-01-24T00:06:06.238Z,42.89
2017-01-24T00:07:06.667Z,43.07
2017-01-24T00:08:06.682Z,43.07
2017-01-24T00:09:06.717Z,42.6
2017-01-24T00:10:06.748Z,42.77
2017-01-24T00:11:06.769Z,42.87
2017-01-24T00:12:06.402Z,42.89
2017-01-24T00:13:06.414Z,42.87
2017-01-24T00:14:06.447Z,42.49
2017-01-24T00:15:06.473Z,42.87
2017-01-24T00:16:06.496Z,42.58
2017-01-24T00:17:06.921Z,42.77
2017-01-24T00:18:06.550Z,43.45
2017-01-24T00:19:06.970Z,43.45
2017-01-24T00:20:07.003Z,42.58
2017-01-24T00:21:06.632Z,42.77
2017-01-24T00:22:06.652Z,42.77
2017-01-24T00:23:06.678Z,43.45
2017-01-24T00:24:07.102Z,42.58
2017-01-24T00:25:06.732Z,42.58
2017-01-24T00:26:07.159Z,42.87
2017-01-24T00:27:06.780Z,42.87
2017-01-24T00:28:07.195Z,42.68
2017-01-24T00:29:06.834Z,42.77
2017-01-24T00:30:06.862Z,42.77
2017-01-24T00:31:06.878Z,42.77
2017-01-24T00:32:07.303Z,43.07
2017-01-24T00:33:07.332Z,42.68
2017-01-24T00:34:07.357Z,42.87
2017-01-24T00:35:07.001Z,43.16
2017-01-24T00:36:07.408Z,43.07
2017-01-24T00:37:07.447Z,43.16
2017-01-24T00:38:07.071Z,42.97
2017-01-24T00:39:07.490Z,43.07
2017-01-24T00:40:07.115Z,42.58
2017-01-24T00:41:07.534Z,43.07
2017-01-24T00:42:07.162Z,42.58
2017-01-24T00:43:07.587Z,42.87
2017-01-24T00:44:07.611Z,42.58
2017-01-24T00:45:07.245Z,42.68
2017-01-24T00:46:07.265Z,42.68
2017-01-24T00:47:07.691Z,42.2
2017-01-24T00:48:07.325Z,42.49
2017-01-24T00:49:07.744Z,42.49
2017-01-24T00:50:07.766Z,42.39
2017-01-24T00:51:07.792Z,42.49
2017-01-24T00:52:07.816Z,42.58
2017-01-24T00:53:07.861Z,42.3
2017-01-24T00:54:07.472Z,42.3
2017-01-24T00:55:07.892Z,42.3
2017-01-24T00:56:07.519Z,42.1
2017-01-24T00:57:07.946Z,42.39
2017-01-24T00:58:07.965Z,42.1
2017-01-24T00:59:07.594Z,42.2
2017-01-24T01:00:08.019Z,42.1
2017-01-24T01:01:08.044Z,42
2017-01-24T01:02:07.676Z,42.49
2017-01-24T01:03:08.096Z,42.58
2017-01-24T01:04:07.726Z,42.39
2017-01-24T01:05:07.754Z,43.16
2017-01-24T01:06:07.799Z,42.49
2017-01-24T01:07:07.806Z,42.39
2017-01-24T01:08:08.229Z,42.39
2017-01-24T01:09:08.279Z,42.47
2017-01-24T01:10:07.881Z,42.2
2017-01-24T01:11:07.906Z,42.3
2017-01-24T01:12:07.927Z,42
2017-01-24T01:13:08.356Z,42.1
2017-01-24T01:14:08.376Z,42.37
2017-01-24T01:15:08.006Z,42.08
2017-01-24T01:16:08.429Z,42.37
2017-01-24T01:17:08.061Z,42.1
2017-01-24T01:18:08.083Z,41.91
2017-01-24T01:19:08.108Z,42.27
2017-01-24T01:20:08.132Z,42.18
2017-01-24T01:21:08.161Z,41.7
2017-01-24T01:22:08.182Z,41.99
2017-01-24T01:23:08.211Z,41.91
2017-01-24T01:24:08.239Z,41.99
2017-01-24T01:25:08.654Z,41.99
2017-01-24T01:26:08.677Z,41.99
2017-01-24T01:27:08.313Z,41.91
2017-01-24T01:28:08.338Z,41.99
2017-01-24T01:29:08.762Z,41.89
2017-01-24T01:30:08.784Z,41.99
2017-01-24T01:31:08.412Z,41.7
2017-01-24T01:32:08.442Z,41.22
2017-01-24T01:33:08.863Z,41.12
2017-01-24T01:34:08.492Z,41.5
2017-01-24T01:35:08.911Z,41.5
2017-01-24T01:36:08.544Z,41.22
2017-01-24T01:37:08.958Z,41.5
2017-01-24T01:38:08.989Z,41.41
2017-01-24T01:39:08.614Z,41.41
2017-01-24T01:40:08.641Z,41.22
2017-01-24T01:41:09.069Z,41.22
2017-01-24T01:42:08.689Z,41.22
2017-01-24T01:43:08.720Z,40.93
2017-01-24T01:44:08.746Z,41.22
2017-01-24T01:45:08.771Z,41.12
2017-01-24T01:46:08.795Z,41.12
2017-01-24T01:47:08.821Z,41.12
2017-01-24T01:48:08.844Z,41.22
2017-01-24T01:49:09.270Z,41.12
2017-01-24T01:50:09.297Z,40.93
2017-01-24T01:51:08.923Z,41.12
2017-01-24T01:52:08.946Z,41.12
2017-01-24T01:53:08.996Z,41.22
2017-01-24T01:54:09.393Z,41.31
2017-01-24T01:55:09.022Z,41.31
2017-01-24T01:56:09.051Z,41.41
2017-01-24T01:57:09.476Z,40.55
2017-01-24T01:58:09.496Z,40.73
2017-01-24T01:59:09.526Z,40.83
2017-01-24T02:00:09.553Z,40.55
2017-01-24T02:01:09.183Z,40.83
2017-01-24T02:02:09.203Z,40.55
2017-01-24T02:03:09.623Z,40.55
2017-01-24T02:04:09.248Z,40.93
2017-01-24T02:05:09.673Z,40.73
2017-01-24T02:06:09.706Z,40.93
2017-01-24T02:07:09.329Z,40.93
2017-01-24T02:08:09.355Z,40.93
2017-01-24T02:09:09.383Z,40.93
2017-01-24T02:10:09.403Z,40.55
2017-01-24T02:11:09.424Z,40.83
2017-01-24T02:12:09.453Z,40.83
2017-01-24T02:13:09.481Z,40.83
2017-01-24T02:14:09.502Z,40.45
2017-01-24T02:15:09.530Z,40.45
2017-01-24T02:16:09.547Z,40.64
2017-01-24T02:17:09.583Z,40.55
2017-01-24T02:18:09.605Z,40.55
2017-01-24T02:19:10.025Z,40.64
2017-01-24T02:20:09.654Z,40.64
2017-01-24T02:21:10.080Z,40.64
2017-01-24T02:22:10.104Z,40.64
2017-01-24T02:23:10.126Z,40.64
2017-01-24T02:24:10.156Z,40.45
2017-01-24T02:25:09.780Z,39.78
2017-01-24T02:26:10.206Z,40.35
2017-01-24T02:27:10.235Z,40.06
2017-01-24T02:28:09.859Z,39.97
2017-01-24T02:29:09.884Z,39.97
2017-01-24T02:30:10.309Z,39.97
2017-01-24T02:31:09.929Z,39.87
2017-01-24T02:32:09.962Z,39.87
2017-01-24T02:33:09.987Z,39.87
2017-01-24T02:34:10.012Z,39.87
2017-01-24T02:35:10.032Z,40.06
2017-01-24T02:36:10.453Z,39.87
2017-01-24T02:37:10.082Z,39.87
2017-01-24T02:38:10.110Z,39.78
2017-01-24T02:39:10.527Z,39.49
2017-01-24T02:40:10.555Z,39.66
2017-01-24T02:41:10.585Z,39.66
2017-01-24T02:42:10.213Z,39.78
2017-01-24T02:43:10.656Z,39.56
2017-01-24T02:44:10.267Z,39.47
2017-01-24T02:45:10.288Z,39.68
2017-01-24T02:46:10.713Z,39.68
2017-01-24T02:47:10.336Z,39.66
2017-01-24T02:48:10.365Z,39.76
2017-01-24T02:49:10.790Z,39.85
2017-01-24T02:50:10.415Z,39.68
2017-01-24T02:51:10.835Z,39.76
2017-01-24T02:52:10.464Z,39.95
2017-01-24T02:53:10.490Z,39.76
2017-01-24T02:54:10.914Z,39.95
2017-01-24T02:55:10.938Z,39.95
2017-01-24T02:56:10.956Z,39.87
2017-01-24T02:57:10.592Z,39.95
2017-01-24T02:58:10.616Z,39.56
2017-01-24T02:59:10.643Z,39.95
2017-01-24T03:00:10.666Z,39.66
2017-01-24T03:01:11.087Z,39.76
2017-01-24T03:02:11.119Z,39.95
2017-01-24T03:03:11.145Z,39.47
2017-01-24T03:04:11.165Z,39.37
2017-01-24T03:05:10.794Z,39.47
2017-01-24T03:06:11.215Z,38.99
2017-01-24T03:07:11.235Z,39.08
2017-01-24T03:08:11.264Z,38.99
2017-01-24T03:09:11.293Z,39.18
2017-01-24T03:10:11.313Z,39.56
2017-01-24T03:11:11.345Z,39.18
2017-01-24T03:12:11.362Z,39.37
2017-01-24T03:13:10.991Z,39.47
2017-01-24T03:14:11.412Z,39.08
2017-01-24T03:15:11.443Z,39.37
2017-01-24T03:16:11.472Z,38.89
2017-01-24T03:17:11.492Z,39.18
2017-01-24T03:18:11.116Z,39.28
2017-01-24T03:19:11.540Z,39.37
2017-01-24T03:20:11.168Z,39.18
2017-01-24T03:21:11.192Z,39.08
2017-01-24T03:22:11.613Z,39.18
2017-01-24T03:23:11.239Z,39.18
2017-01-24T03:24:11.663Z,39.28
2017-01-24T03:25:11.693Z,39.37
2017-01-24T03:26:11.325Z,39.37
2017-01-24T03:27:11.745Z,39.28
2017-01-24T03:28:11.766Z,38.89
2017-01-24T03:29:11.395Z,39.28
2017-01-24T03:30:11.816Z,38.99
2017-01-24T03:31:11.446Z,38.79
2017-01-24T03:32:11.476Z,39.08
2017-01-24T03:33:11.894Z,38.79
2017-01-24T03:34:11.918Z,38.6
2017-01-24T03:35:11.545Z,38.99
2017-01-24T03:36:11.968Z,38.7
2017-01-24T03:37:11.597Z,38.99
2017-01-24T03:38:12.018Z,38.6
2017-01-24T03:39:11.642Z,38.6
2017-01-24T03:40:12.067Z,38.51
2017-01-24T03:41:12.092Z,38.7
2017-01-24T03:42:12.128Z,38.51
2017-01-24T03:43:12.144Z,38.6
2017-01-24T03:44:12.170Z,38.41
2017-01-24T03:45:11.798Z,38.41
2017-01-24T03:46:11.818Z,38.6
2017-01-24T03:47:11.852Z,38.79
2017-01-24T03:48:12.266Z,38.99
2017-01-24T03:49:11.898Z,38.99
2017-01-24T03:50:11.918Z,38.79
2017-01-24T03:51:11.947Z,39.18
2017-01-24T03:52:11.967Z,39.18
2017-01-24T03:53:12.396Z,38.7
2017-01-24T03:54:12.045Z,39.18
2017-01-24T03:55:12.046Z,38.41
2017-01-24T03:56:12.070Z,38.6
2017-01-24T03:57:12.499Z,38.41
2017-01-24T03:58:12.516Z,38.41
2017-01-24T03:59:12.144Z,38.32
2017-01-24T04:00:12.173Z,38.79
2017-01-24T04:01:12.194Z,38.7
2017-01-24T04:02:12.619Z,38.7
2017-01-24T04:03:12.248Z,38.89
2017-01-24T04:04:12.664Z,38.7
2017-01-24T04:05:12.696Z,38.7
2017-01-24T04:06:12.322Z,38.51
2017-01-24T04:07:12.750Z,38.7
2017-01-24T04:08:12.775Z,38.79
2017-01-24T04:09:12.796Z,38.6
2017-01-24T04:10:12.424Z,38.7
2017-01-24T04:11:12.446Z,38.6
2017-01-24T04:12:12.471Z,38.89
2017-01-24T04:13:12.901Z,38.7
2017-01-24T04:14:12.916Z,38.32
2017-01-24T04:15:12.544Z,38.32
2017-01-24T04:16:12.977Z,38.12
2017-01-24T04:17:12.998Z,38.7
2017-01-24T04:18:12.627Z,38.22
2017-01-24T04:19:12.652Z,38.12
2017-01-24T04:20:13.070Z,38.22
2017-01-24T04:21:13.097Z,38.32
2017-01-24T04:22:13.121Z,37.93
2017-01-24T04:23:12.751Z,38.02
2017-01-24T04:24:12.771Z,37.82
2017-01-24T04:25:12.798Z,38.22
2017-01-24T04:26:12.821Z,38.2
2017-01-24T04:27:12.845Z,38.02
2017-01-24T04:28:13.271Z,38.22
2017-01-24T04:29:12.902Z,37.64
2017-01-24T04:30:12.927Z,37.74
2017-01-24T04:31:12.948Z,37.72
2017-01-24T04:32:12.977Z,37.93
2017-01-24T04:33:13.003Z,38.22
2017-01-24T04:34:13.027Z,37.55
2017-01-24T04:35:13.443Z,37.45
2017-01-24T04:36:13.073Z,37.84
2017-01-24T04:37:13.096Z,37.84
2017-01-24T04:38:13.522Z,38.01
2017-01-24T04:39:13.149Z,37.74
2017-01-24T04:40:13.175Z,37.93
2017-01-24T04:41:13.199Z,37.84
2017-01-24T04:42:13.622Z,37.93
2017-01-24T04:43:13.641Z,37.62
2017-01-24T04:44:13.666Z,37.55
2017-01-24T04:45:13.691Z,37.64
2017-01-24T04:46:13.323Z,37.34
2017-01-24T04:47:13.748Z,37.43
2017-01-24T04:48:13.777Z,37.43
2017-01-24T04:49:13.393Z,37.82
2017-01-24T04:50:13.818Z,37.24
2017-01-24T04:51:13.848Z,37.72
2017-01-24T04:52:13.872Z,37.43
2017-01-24T04:53:13.525Z,37.62
2017-01-24T04:54:13.922Z,37.72
2017-01-24T04:55:13.551Z,37.45
2017-01-24T04:56:13.972Z,37.43
2017-01-24T04:57:13.601Z,37.72
2017-01-24T04:58:13.621Z,37.62
2017-01-24T04:59:14.045Z,37.43
2017-01-24T05:00:13.670Z,37.43
2017-01-24T05:01:14.091Z,37.62
2017-01-24T05:02:14.119Z,37.72
2017-01-24T05:03:14.161Z,37.53
2017-01-24T05:04:13.774Z,37.53
2017-01-24T05:05:14.194Z,37.62
2017-01-24T05:06:14.225Z,37.53
2017-01-24T05:07:14.246Z,37.34
2017-01-24T05:08:13.876Z,37.24
2017-01-24T05:09:14.296Z,37.24
2017-01-24T05:10:13.922Z,37.43
2017-01-24T05:11:14.342Z,37.43
2017-01-24T05:12:13.971Z,37.53
2017-01-24T05:13:14.000Z,37.62
2017-01-24T05:14:14.424Z,37.15
2017-01-24T05:15:14.048Z,37.53
2017-01-24T05:16:14.478Z,37.53
2017-01-24T05:17:14.101Z,37.34
2017-01-24T05:18:14.511Z,36.86
2017-01-24T05:19:14.149Z,37.15
2017-01-24T05:20:14.569Z,36.95
2017-01-24T05:21:14.598Z,37.05
2017-01-24T05:22:14.618Z,37.15
2017-01-24T05:23:14.243Z,37.53
2017-01-24T05:24:14.672Z,37.62
2017-01-24T05:25:14.691Z,37.43
2017-01-24T05:26:14.725Z,37.34
2017-01-24T05:27:14.342Z,37.62
2017-01-24T05:28:14.768Z,37.34
2017-01-24T05:29:14.799Z,37.05
2017-01-24T05:30:14.817Z,36.95
2017-01-24T05:31:14.847Z,36.86
2017-01-24T05:32:14.870Z,37.15
2017-01-24T05:33:14.499Z,37.05
2017-01-24T05:34:14.523Z,37.26
2017-01-24T05:35:14.944Z,37.07
2017-01-24T05:36:14.969Z,37.26
2017-01-24T05:37:14.593Z,37.16
2017-01-24T05:38:15.014Z,37.07
2017-01-24T05:39:15.043Z,37.16
2017-01-24T05:40:15.072Z,37.45
2017-01-24T05:41:14.692Z,37.35
2017-01-24T05:42:15.119Z,37.35
2017-01-24T05:43:14.755Z,36.88
2017-01-24T05:44:15.171Z,36.97
2017-01-24T05:45:14.799Z,36.97
2017-01-24T05:46:14.820Z,36.49
2017-01-24T05:47:15.240Z,36.88
2017-01-24T05:48:14.873Z,36.68
2017-01-24T05:49:14.902Z,36.58
2017-01-24T05:50:14.924Z,36.4
2017-01-24T05:51:15.348Z,36.2
2017-01-24T05:52:14.976Z,36.68
2017-01-24T05:53:15.001Z,36.68
2017-01-24T05:54:15.429Z,36.41
2017-01-24T05:55:15.050Z,36.32
2017-01-24T05:56:15.471Z,36.32
2017-01-24T05:57:15.100Z,36.32
2017-01-24T05:58:15.126Z,36.32
2017-01-24T05:59:15.540Z,35.93
2017-01-24T06:00:15.570Z,35.83
2017-01-24T06:01:15.594Z,35.83
2017-01-24T06:02:15.624Z,36.22
2017-01-24T06:03:15.644Z,36.22
2017-01-24T06:04:15.277Z,36.22
2017-01-24T06:05:15.702Z,36.41
2017-01-24T06:06:15.725Z,36.03
2017-01-24T06:07:15.747Z,36.03
2017-01-24T06:08:15.773Z,35.74
2017-01-24T06:09:15.789Z,35.74
2017-01-24T06:10:15.817Z,35.74
2017-01-24T06:11:15.843Z,35.64
2017-01-24T06:12:15.471Z,35.36
2017-01-24T06:13:15.903Z,35.26
2017-01-24T06:14:15.924Z,35.74
2017-01-24T06:15:15.557Z,35.64
2017-01-24T06:16:15.969Z,35.74
2017-01-24T06:17:15.603Z,35.45
2017-01-24T06:18:15.627Z,35.55
2017-01-24T06:19:16.049Z,35.85
2017-01-24T06:20:16.073Z,35.57
2017-01-24T06:21:15.694Z,35.64
2017-01-24T06:22:16.126Z,35.64
2017-01-24T06:23:15.750Z,35.57
2017-01-24T06:24:15.779Z,35.66
2017-01-24T06:25:16.197Z,35.66
2017-01-24T06:26:15.825Z,35.76
2017-01-24T06:27:15.849Z,35.38
2017-01-24T06:28:15.895Z,35.57
2017-01-24T06:29:16.302Z,35.66
2017-01-24T06:30:16.328Z,35.38
2017-01-24T06:31:15.952Z,35.76
2017-01-24T06:32:15.972Z,35.66
2017-01-24T06:33:16.010Z,35.76
2017-01-24T06:34:16.030Z,35.38
2017-01-24T06:35:16.061Z,35.66
2017-01-24T06:36:16.082Z,35.85
2017-01-24T06:37:16.109Z,36.15
2017-01-24T06:38:16.540Z,36.05
2017-01-24T06:39:16.158Z,36.24
2017-01-24T06:40:16.183Z,36.15
2017-01-24T06:41:16.208Z,36.15
2017-01-24T06:42:16.233Z,36.15
2017-01-24T06:43:16.257Z,36.24
2017-01-24T06:44:16.290Z,36.33
2017-01-24T06:45:16.311Z,36.72
2017-01-24T06:46:16.332Z,36.72
2017-01-24T06:47:16.753Z,36.91
2017-01-24T06:48:16.785Z,37.2
2017-01-24T06:49:16.410Z,37.2
2017-01-24T06:50:16.430Z,37.39
2017-01-24T06:51:16.455Z,37.49
2017-01-24T06:52:16.491Z,37.77
2017-01-24T06:53:16.509Z,37.59
2017-01-24T06:54:16.542Z,37.49
2017-01-24T06:55:16.959Z,37.87
2017-01-24T06:56:16.593Z,37.59
2017-01-24T06:57:17.011Z,37.77
2017-01-24T06:58:17.040Z,37.77
2017-01-24T06:59:16.665Z,37.97
2017-01-24T07:00:16.693Z,37.97
2017-01-24T07:01:16.718Z,37.97
2017-01-24T07:02:16.738Z,37.97
2017-01-24T07:03:17.164Z,37.87
2017-01-24T07:04:17.193Z,37.77
2017-01-24T07:05:17.216Z,37.87
2017-01-24T07:06:17.241Z,37.59
2017-01-24T07:07:16.867Z,37.97
2017-01-24T07:08:17.294Z,37.97
2017-01-24T07:09:17.313Z,37.6
2017-01-24T07:10:16.948Z,37.87
2017-01-24T07:11:16.969Z,37.97
2017-01-24T07:12:17.394Z,37.89
2017-01-24T07:13:17.423Z,37.89
2017-01-24T07:14:17.048Z,37.89
2017-01-24T07:15:17.472Z,37.89
2017-01-24T07:16:17.100Z,37.79
2017-01-24T07:17:17.122Z,37.51
2017-01-24T07:18:17.546Z,37.99
2017-01-24T07:19:17.184Z,37.99
2017-01-24T07:20:17.199Z,37.79
2017-01-24T07:21:17.227Z,37.7
2017-01-24T07:22:17.649Z,37.79
2017-01-24T07:23:17.670Z,37.51
2017-01-24T07:24:17.307Z,37.6
2017-01-24T07:25:17.333Z,37.89
2017-01-24T07:26:17.752Z,37.79
2017-01-24T07:27:17.380Z,37.89
2017-01-24T07:28:17.409Z,37.51
2017-01-24T07:29:17.826Z,37.6
2017-01-24T07:30:17.454Z,37.79
2017-01-24T07:31:17.483Z,37.7
2017-01-24T07:32:17.512Z,37.51
2017-01-24T07:33:17.933Z,37.79
2017-01-24T07:34:17.954Z,37.89
2017-01-24T07:35:17.582Z,37.89
2017-01-24T07:36:17.615Z,37.51
2017-01-24T07:37:17.638Z,37.51
2017-01-24T07:38:18.056Z,37.51
2017-01-24T07:39:17.684Z,37.51
2017-01-24T07:40:17.737Z,37.51
2017-01-24T07:41:18.138Z,37.41
2017-01-24T07:42:18.164Z,37.6
2017-01-24T07:43:18.192Z,37.51
2017-01-24T07:44:17.812Z,37.41
2017-01-24T07:45:17.841Z,37.22
2017-01-24T07:46:17.870Z,37.32
2017-01-24T07:47:17.893Z,37.22
2017-01-24T07:48:17.923Z,37.32
2017-01-24T07:49:18.336Z,37.3
2017-01-24T07:50:18.368Z,37.02
2017-01-24T07:51:18.401Z,37.39
2017-01-24T07:52:18.416Z,37.32
2017-01-24T07:53:18.438Z,37.41
2017-01-24T07:54:18.467Z,37.68
2017-01-24T07:55:18.097Z,37.39
2017-01-24T07:56:18.129Z,37.41
2017-01-24T07:57:18.149Z,37.2
2017-01-24T07:58:18.174Z,37.01
2017-01-24T07:59:18.199Z,37.39
2017-01-24T08:00:18.624Z,37.49
2017-01-24T08:01:18.252Z,37.3
2017-01-24T08:02:18.280Z,37.1
2017-01-24T08:03:18.304Z,37.01
2017-01-24T08:04:18.727Z,37.01
2017-01-24T08:05:18.357Z,37.01
2017-01-24T08:06:18.380Z,37.39
2017-01-24T08:07:18.805Z,37.49
2017-01-24T08:08:18.829Z,37.39
2017-01-24T08:09:18.457Z,37.39
2017-01-24T08:10:18.482Z,37.39
2017-01-24T08:11:18.508Z,37.49
2017-01-24T08:12:18.933Z,36.91
2017-01-24T08:13:18.965Z,37.1
2017-01-24T08:14:18.981Z,37.01
2017-01-24T08:15:18.610Z,37.01
2017-01-24T08:16:19.034Z,37.01
2017-01-24T08:17:19.058Z,37.2
2017-01-24T08:18:18.679Z,36.91
2017-01-24T08:19:18.712Z,37.01
2017-01-24T08:20:19.137Z,36.82
2017-01-24T08:21:18.766Z,37.3
2017-01-24T08:22:19.187Z,37.2
2017-01-24T08:23:18.812Z,37.1
2017-01-24T08:24:18.841Z,37.2
2017-01-24T08:25:18.869Z,37.01
2017-01-24T08:26:18.907Z,36.82
2017-01-24T08:27:19.314Z,36.82
2017-01-24T08:28:19.341Z,36.43
2017-01-24T08:29:19.364Z,36.91
2017-01-24T08:30:18.999Z,36.91
2017-01-24T08:31:19.021Z,36.91
2017-01-24T08:32:19.443Z,36.82
2017-01-24T08:33:19.069Z,36.72
2017-01-24T08:34:19.491Z,36.43
2017-01-24T08:35:19.517Z,36.62
2017-01-24T08:36:19.546Z,36.05
2017-01-24T08:37:19.574Z,37.1
2017-01-24T08:38:19.597Z,37.77
2017-01-24T08:39:19.231Z,34.31
2017-01-24T08:40:19.649Z,35.06
2017-01-24T08:41:19.276Z,37.18
2017-01-24T08:42:19.693Z,37.57
2017-01-24T08:43:19.722Z,37.18
2017-01-24T08:44:19.350Z,34.11
2017-01-24T08:45:19.380Z,31.8
2017-01-24T08:46:19.404Z,35.24
2017-01-24T08:47:19.825Z,36.58
2017-01-24T08:48:19.854Z,37.15
2017-01-24T08:49:19.478Z,37.43
2017-01-24T08:50:19.504Z,36.95
2017-01-24T08:51:19.920Z,36.38
2017-01-24T08:52:19.957Z,36.68
2017-01-24T08:53:19.576Z,36.47
2017-01-24T08:54:20.002Z,36.38
2017-01-24T08:55:20.023Z,36.4
2017-01-24T08:56:19.655Z,36.09
2017-01-24T08:57:19.680Z,36.2
2017-01-24T08:58:20.102Z,36.11
2017-01-24T08:59:20.133Z,36.2
2017-01-24T09:00:20.154Z,35.91
2017-01-24T09:01:20.191Z,35.82
2017-01-24T09:02:20.223Z,35.82
2017-01-24T09:03:19.832Z,36.2
2017-01-24T09:04:19.857Z,36.11
2017-01-24T09:05:20.278Z,36.01
2017-01-24T09:06:19.906Z,35.91
2017-01-24T09:07:20.327Z,35.82
2017-01-24T09:08:19.959Z,36.3
2017-01-24T09:09:20.380Z,36.2
2017-01-24T09:10:20.013Z,36.2
2017-01-24T09:11:20.029Z,36.2
2017-01-24T09:12:20.454Z,36.2
2017-01-24T09:13:20.475Z,36.01
2017-01-24T09:14:20.104Z,36.4
2017-01-24T09:15:20.529Z,35.91
2017-01-24T09:16:20.556Z,36.2
2017-01-24T09:17:20.586Z,36.11
2017-01-24T09:18:20.210Z,36.3
2017-01-24T09:19:20.235Z,36.2
2017-01-24T09:20:20.264Z,35.91
2017-01-24T09:21:20.682Z,35.82
2017-01-24T09:22:20.706Z,35.72
2017-01-24T09:23:20.334Z,35.91
2017-01-24T09:24:20.387Z,36.01
2017-01-24T09:25:20.380Z,36.01
2017-01-24T09:26:20.804Z,36.01
2017-01-24T09:27:20.436Z,35.82
2017-01-24T09:28:20.462Z,36.01
2017-01-24T09:29:20.883Z,35.91
2017-01-24T09:30:20.927Z,36.11
2017-01-24T09:31:20.932Z,35.82
2017-01-24T09:32:20.957Z,35.82
2017-01-24T09:33:20.585Z,35.43
2017-01-24T09:34:21.007Z,35.63
2017-01-24T09:35:21.031Z,35.83
2017-01-24T09:36:20.664Z,35.63
2017-01-24T09:37:21.080Z,35.64
2017-01-24T09:38:21.109Z,35.63
2017-01-24T09:39:21.139Z,35.74
2017-01-24T09:40:21.158Z,35.63
2017-01-24T09:41:21.183Z,35.74
2017-01-24T09:42:21.205Z,35.43
2017-01-24T09:43:21.235Z,35.72
2017-01-24T09:44:20.865Z,35.34
2017-01-24T09:45:21.287Z,35.36
2017-01-24T09:46:20.920Z,35.34
2017-01-24T09:47:21.335Z,35.53
2017-01-24T09:48:21.360Z,35.72
2017-01-24T09:49:20.993Z,35.63
2017-01-24T09:50:21.411Z,35.72
2017-01-24T09:51:21.040Z,35.74
2017-01-24T09:52:21.067Z,35.63
2017-01-24T09:53:21.489Z,35.36
2017-01-24T09:54:21.112Z,35.64
2017-01-24T09:55:21.146Z,35.74
2017-01-24T09:56:21.171Z,36.01
2017-01-24T09:57:21.584Z,35.63
2017-01-24T09:58:21.609Z,35.53
2017-01-24T09:59:21.637Z,35.36
2017-01-24T10:00:21.266Z,35.72
2017-01-24T10:01:21.294Z,35.72
2017-01-24T10:02:21.716Z,35.34
2017-01-24T10:03:21.740Z,35.63
2017-01-24T10:04:21.368Z,35.72
2017-01-24T10:05:21.389Z,35.72
2017-01-24T10:06:21.419Z,35.63
2017-01-24T10:07:21.842Z,35.63
2017-01-24T10:08:21.467Z,35.34
2017-01-24T10:09:21.496Z,35.72
2017-01-24T10:10:21.521Z,35.72
2017-01-24T10:11:21.546Z,35.34
2017-01-24T10:12:21.570Z,35.34
2017-01-24T10:13:21.604Z,35.72
2017-01-24T10:14:21.620Z,35.63
2017-01-24T10:15:21.669Z,35.72
2017-01-24T10:16:22.056Z,35.63
2017-01-24T10:17:22.095Z,35.34
2017-01-24T10:18:21.723Z,35.72
2017-01-24T10:19:21.746Z,35.34
2017-01-24T10:20:21.772Z,35.72
2017-01-24T10:21:22.193Z,35.34
2017-01-24T10:22:22.218Z,35.63
2017-01-24T10:23:22.507Z,35.53
2017-01-24T10:24:22.271Z,35.34
2017-01-24T10:25:22.300Z,35.63
2017-01-24T10:26:21.924Z,35.53
2017-01-24T10:27:22.338Z,35.63
2017-01-24T10:28:21.970Z,35.72
2017-01-24T10:29:21.995Z,35.34
2017-01-24T10:30:22.421Z,35.34
2017-01-24T10:31:22.049Z,35.63
2017-01-24T10:32:22.466Z,35.63
2017-01-24T10:33:22.499Z,35.34
2017-01-24T10:34:22.523Z,35.72
2017-01-24T10:35:22.548Z,35.34
2017-01-24T10:36:22.178Z,35.72
2017-01-24T10:37:22.597Z,35.72
2017-01-24T10:38:22.226Z,35.34
2017-01-24T10:39:22.247Z,36.01
2017-01-24T10:40:22.676Z,35.34
2017-01-24T10:41:22.304Z,35.43
2017-01-24T10:42:22.724Z,35.34
2017-01-24T10:43:22.358Z,35.72
2017-01-24T10:44:22.778Z,35.34
2017-01-24T10:45:22.799Z,35.63
2017-01-24T10:46:22.824Z,35.34
2017-01-24T10:47:22.849Z,35.34
2017-01-24T10:48:22.869Z,35.72
2017-01-24T10:49:22.898Z,35.72
2017-01-24T10:50:22.530Z,35.53
2017-01-24T10:51:22.551Z,35.53
2017-01-24T10:52:22.976Z,35.72
2017-01-24T10:53:22.605Z,35.34
2017-01-24T10:54:23.022Z,35.72
2017-01-24T10:55:23.051Z,35.72
2017-01-24T10:56:23.072Z,35.63
2017-01-24T10:57:22.704Z,35.63
2017-01-24T10:58:22.736Z,35.63
2017-01-24T10:59:22.762Z,35.34
2017-01-24T11:00:22.778Z,35.63
2017-01-24T11:01:23.203Z,35.34
2017-01-24T11:02:23.220Z,35.53
2017-01-24T11:03:23.276Z,35.34
2017-01-24T11:04:23.276Z,35.72
2017-01-24T11:05:23.301Z,35.34
2017-01-24T11:06:23.330Z,35.63
2017-01-24T11:07:23.351Z,35.63
2017-01-24T11:08:22.983Z,35.24
2017-01-24T11:09:23.013Z,35.72
2017-01-24T11:10:23.438Z,35.72
2017-01-24T11:11:23.449Z,35.63
2017-01-24T11:12:23.478Z,35.72
2017-01-24T11:13:23.112Z,35.63
2017-01-24T11:14:23.134Z,35.34
2017-01-24T11:15:23.156Z,35.63
2017-01-24T11:16:23.587Z,35.63
2017-01-24T11:17:23.607Z,35.63
2017-01-24T11:18:23.625Z,35.63
2017-01-24T11:19:23.669Z,35.91
2017-01-24T11:20:23.684Z,35.63
2017-01-24T11:21:23.702Z,35.63
2017-01-24T11:22:23.734Z,35.91
2017-01-24T11:23:23.359Z,35.72
2017-01-24T11:24:23.799Z,35.24
2017-01-24T11:25:23.413Z,35.63
2017-01-24T11:26:23.832Z,35.63
2017-01-24T11:27:23.884Z,35.72
2017-01-24T11:28:23.490Z,35.63
2017-01-24T11:29:23.903Z,35.72
2017-01-24T11:30:23.932Z,36.11
2017-01-24T11:31:23.983Z,36.01
2017-01-24T11:32:23.584Z,35.63
2017-01-24T11:33:24.007Z,35.63
2017-01-24T11:34:24.037Z,35.72
2017-01-24T11:35:24.060Z,35.72
2017-01-24T11:36:23.688Z,35.63
2017-01-24T11:37:24.109Z,35.63
2017-01-24T11:38:24.133Z,36.11
2017-01-24T11:39:23.761Z,35.82
2017-01-24T11:40:24.182Z,35.72
2017-01-24T11:41:24.204Z,35.72
2017-01-24T11:42:23.844Z,35.72
2017-01-24T11:43:23.860Z,35.63
2017-01-24T11:44:24.289Z,35.43
2017-01-24T11:45:23.910Z,35.63
2017-01-24T11:46:23.940Z,35.72
2017-01-24T11:47:24.359Z,35.72
2017-01-24T11:48:24.386Z,35.53
2017-01-24T11:49:24.012Z,35.63
2017-01-24T11:50:24.434Z,35.82
2017-01-24T11:51:24.462Z,35.63
2017-01-24T11:52:24.486Z,35.63
2017-01-24T11:53:24.507Z,35.72
2017-01-24T11:54:24.142Z,35.63
2017-01-24T11:55:24.565Z,35.63
2017-01-24T11:56:24.586Z,35.43
2017-01-24T11:57:24.606Z,35.43
2017-01-24T11:58:24.233Z,35.53
2017-01-24T11:59:24.259Z,36.11
2017-01-24T12:00:24.294Z,35.72
2017-01-24T12:01:24.710Z,35.72
2017-01-24T12:02:24.738Z,35.72
2017-01-24T12:03:24.367Z,35.72
2017-01-24T12:04:24.391Z,35.63
2017-01-24T12:05:24.412Z,35.72
2017-01-24T12:06:24.442Z,36.01
2017-01-24T12:07:24.461Z,35.72
2017-01-24T12:08:24.494Z,35.63
2017-01-24T12:09:24.915Z,35.72
2017-01-24T12:10:24.936Z,35.91
2017-01-24T12:11:24.968Z,35.53
2017-01-24T12:12:24.593Z,35.53
2017-01-24T12:13:25.017Z,35.63
2017-01-24T12:14:24.670Z,35.63
2017-01-24T12:15:24.671Z,35.63
2017-01-24T12:16:24.691Z,35.53
2017-01-24T12:17:25.120Z,35.63
2017-01-24T12:18:24.751Z,35.53
2017-01-24T12:19:24.771Z,35.34
2017-01-24T12:20:24.794Z,35.63
2017-01-24T12:21:24.815Z,35.34
2017-01-24T12:22:25.240Z,35.63
2017-01-24T12:23:25.260Z,35.34
2017-01-24T12:24:24.893Z,35.72
2017-01-24T12:25:25.319Z,35.43
2017-01-24T12:26:25.343Z,35.43
2017-01-24T12:27:24.971Z,35.34
2017-01-24T12:28:25.417Z,35.63
2017-01-24T12:29:25.027Z,35.72
2017-01-24T12:30:25.446Z,35.72
2017-01-24T12:31:25.468Z,35.63
2017-01-24T12:32:25.488Z,35.72
2017-01-24T12:33:25.516Z,35.53
2017-01-24T12:34:25.540Z,35.63
2017-01-24T12:35:25.169Z,35.72
2017-01-24T12:36:25.194Z,35.53
2017-01-24T12:37:25.219Z,35.82
2017-01-24T12:38:25.247Z,35.63
2017-01-24T12:39:25.668Z,35.72
2017-01-24T12:40:25.297Z,35.63
2017-01-24T12:41:25.718Z,35.82
2017-01-24T12:42:25.341Z,35.63
2017-01-24T12:43:25.771Z,35.82
2017-01-24T12:44:25.400Z,35.63
2017-01-24T12:45:25.816Z,35.82
2017-01-24T12:46:25.845Z,35.91
2017-01-24T12:47:25.870Z,36.01
2017-01-24T12:48:25.895Z,35.72
2017-01-24T12:49:25.519Z,35.91
2017-01-24T12:50:25.547Z,35.72
2017-01-24T12:51:25.968Z,36.01
2017-01-24T12:52:25.994Z,36.01
2017-01-24T12:53:26.034Z,35.91
2017-01-24T12:54:26.047Z,36.11
2017-01-24T12:55:25.680Z,35.91